sensor_id;sensor_type;location;lat;lon;timestamp;temperature;humidity
981;DHT22;479;53.514;9.994;2024-03-06T00:01:08;5.50;99.90
981;DHT22;479;53.514;9.994;2024-03-06T00:03:35;5.50;99.90
981;DHT22;479;53.514;9.994;2024-03-06T00:06:03;5.50;99.90
981;DHT22;479;53.514;9.994;2024-03-06T00:08:30;5.50;99.90
981;DHT22;479;53.514;9.994;2024-03-06T00:10:57;5.60;99.90
981;DHT22;479;53.514;9.994;2024-03-06T00:13:24;5.50;99.90
981;DHT22;479;53.514;9.994;2024-03-06T00:15:51;5.50;99.90
981;DHT22;479;53.514;9.994;2024-03-06T00:18:18;5.60;99.90
981;DHT22;479;53.514;9.994;2024-03-06T00:20:53;5.60;99.90
981;DHT22;479;53.514;9.994;2024-03-06T00:23:22;5.50;99.90
981;DHT22;479;53.514;9.994;2024-03-06T00:25:48;5.50;99.90
981;DHT22;479;53.514;9.994;2024-03-06T00:28:15;5.50;99.90
981;DHT22;479;53.514;9.994;2024-03-06T00:30:42;5.50;99.90
981;DHT22;479;53.514;9.994;2024-03-06T00:33:09;5.50;99.90
981;DHT22;479;53.514;9.994;2024-03-06T00:35:36;5.50;99.90
981;DHT22;479;53.514;9.994;2024-03-06T00:38:03;5.50;99.90
981;DHT22;479;53.514;9.994;2024-03-06T00:40:31;5.50;99.90
981;DHT22;479;53.514;9.994;2024-03-06T00:42:58;5.50;99.90
981;DHT22;479;53.514;9.994;2024-03-06T00:45:25;5.50;99.90
981;DHT22;479;53.514;9.994;2024-03-06T00:47:52;5.60;99.90
981;DHT22;479;53.514;9.994;2024-03-06T00:50:19;5.60;99.90
981;DHT22;479;53.514;9.994;2024-03-06T00:52:47;5.60;99.90
981;DHT22;479;53.514;9.994;2024-03-06T00:55:15;5.50;99.90
981;DHT22;479;53.514;9.994;2024-03-06T00:57:44;5.60;99.90
981;DHT22;479;53.514;9.994;2024-03-06T01:00:12;5.50;99.90
981;DHT22;479;53.514;9.994;2024-03-06T01:02:41;5.50;99.90
981;DHT22;479;53.514;9.994;2024-03-06T01:05:08;5.50;99.90
981;DHT22;479;53.514;9.994;2024-03-06T01:07:37;5.50;99.90
981;DHT22;479;53.514;9.994;2024-03-06T01:10:05;5.50;99.90
981;DHT22;479;53.514;9.994;2024-03-06T01:12:32;5.60;99.90
981;DHT22;479;53.514;9.994;2024-03-06T01:15:01;5.60;99.90
981;DHT22;479;53.514;9.994;2024-03-06T01:17:28;5.50;99.90
981;DHT22;479;53.514;9.994;2024-03-06T01:19:55;5.50;99.90
981;DHT22;479;53.514;9.994;2024-03-06T01:22:22;5.50;99.90
981;DHT22;479;53.514;9.994;2024-03-06T01:24:49;5.50;99.90
981;DHT22;479;53.514;9.994;2024-03-06T01:27:16;5.40;99.90
981;DHT22;479;53.514;9.994;2024-03-06T01:29:43;5.40;99.90
981;DHT22;479;53.514;9.994;2024-03-06T01:32:11;5.40;99.90
981;DHT22;479;53.514;9.994;2024-03-06T01:34:38;5.40;99.90
981;DHT22;479;53.514;9.994;2024-03-06T01:37:05;5.40;99.90
981;DHT22;479;53.514;9.994;2024-03-06T01:39:32;5.40;99.90
981;DHT22;479;53.514;9.994;2024-03-06T01:42:01;5.40;99.90
981;DHT22;479;53.514;9.994;2024-03-06T01:44:29;5.30;99.90
981;DHT22;479;53.514;9.994;2024-03-06T01:46:55;5.30;99.90
981;DHT22;479;53.514;9.994;2024-03-06T01:49:25;5.40;99.90
981;DHT22;479;53.514;9.994;2024-03-06T01:51:55;5.30;99.90
981;DHT22;479;53.514;9.994;2024-03-06T01:54:22;5.30;99.90
981;DHT22;479;53.514;9.994;2024-03-06T01:56:50;5.30;99.90
981;DHT22;479;53.514;9.994;2024-03-06T01:59:19;5.30;99.90
981;DHT22;479;53.514;9.994;2024-03-06T02:01:47;5.30;99.90
981;DHT22;479;53.514;9.994;2024-03-06T02:04:15;5.30;99.90
981;DHT22;479;53.514;9.994;2024-03-06T02:06:45;5.40;99.90
981;DHT22;479;53.514;9.994;2024-03-06T02:09:12;5.30;99.90
981;DHT22;479;53.514;9.994;2024-03-06T02:11:40;5.30;99.90
981;DHT22;479;53.514;9.994;2024-03-06T02:14:08;5.40;99.90
981;DHT22;479;53.514;9.994;2024-03-06T02:16:36;5.40;99.90
981;DHT22;479;53.514;9.994;2024-03-06T02:19:06;5.40;99.90
981;DHT22;479;53.514;9.994;2024-03-06T02:21:42;5.40;99.90
981;DHT22;479;53.514;9.994;2024-03-06T02:24:13;5.50;99.90
981;DHT22;479;53.514;9.994;2024-03-06T02:26:41;5.40;99.90
981;DHT22;479;53.514;9.994;2024-03-06T02:29:09;5.40;99.90
981;DHT22;479;53.514;9.994;2024-03-06T02:31:39;5.50;99.90
981;DHT22;479;53.514;9.994;2024-03-06T02:34:08;5.40;99.90
981;DHT22;479;53.514;9.994;2024-03-06T02:36:36;5.30;99.90
981;DHT22;479;53.514;9.994;2024-03-06T02:39:08;5.30;99.90
981;DHT22;479;53.514;9.994;2024-03-06T02:41:36;5.20;99.90
981;DHT22;479;53.514;9.994;2024-03-06T02:44:11;5.10;99.90
981;DHT22;479;53.514;9.994;2024-03-06T02:46:46;5.10;99.90
981;DHT22;479;53.514;9.994;2024-03-06T02:49:15;5.10;99.90
981;DHT22;479;53.514;9.994;2024-03-06T02:51:43;5.00;99.90
981;DHT22;479;53.514;9.994;2024-03-06T02:54:10;5.00;99.90
981;DHT22;479;53.514;9.994;2024-03-06T02:56:37;4.90;99.90
981;DHT22;479;53.514;9.994;2024-03-06T02:59:04;4.90;99.90
981;DHT22;479;53.514;9.994;2024-03-06T03:01:32;4.80;99.90
981;DHT22;479;53.514;9.994;2024-03-06T03:03:59;4.80;99.90
981;DHT22;479;53.514;9.994;2024-03-06T03:06:26;4.70;99.90
981;DHT22;479;53.514;9.994;2024-03-06T03:08:56;4.70;99.90
981;DHT22;479;53.514;9.994;2024-03-06T03:11:23;4.70;99.90
981;DHT22;479;53.514;9.994;2024-03-06T03:13:49;4.60;99.90
981;DHT22;479;53.514;9.994;2024-03-06T03:16:17;4.60;99.90
981;DHT22;479;53.514;9.994;2024-03-06T03:18:44;4.60;99.90
981;DHT22;479;53.514;9.994;2024-03-06T03:21:11;4.50;99.90
981;DHT22;479;53.514;9.994;2024-03-06T03:23:38;4.50;99.90
981;DHT22;479;53.514;9.994;2024-03-06T03:26:07;4.50;99.90
981;DHT22;479;53.514;9.994;2024-03-06T03:28:37;4.50;99.90
981;DHT22;479;53.514;9.994;2024-03-06T03:31:05;4.50;99.90
981;DHT22;479;53.514;9.994;2024-03-06T03:33:32;4.50;99.90
981;DHT22;479;53.514;9.994;2024-03-06T03:35:59;4.40;99.90
981;DHT22;479;53.514;9.994;2024-03-06T03:38:26;4.40;99.90
981;DHT22;479;53.514;9.994;2024-03-06T03:40:53;4.40;99.90
981;DHT22;479;53.514;9.994;2024-03-06T03:43:21;4.40;99.90
981;DHT22;479;53.514;9.994;2024-03-06T03:45:48;4.30;99.90
981;DHT22;479;53.514;9.994;2024-03-06T03:48:15;4.30;99.90
981;DHT22;479;53.514;9.994;2024-03-06T03:50:42;4.30;99.90
981;DHT22;479;53.514;9.994;2024-03-06T03:53:08;4.30;99.90
981;DHT22;479;53.514;9.994;2024-03-06T03:55:35;4.30;99.90
981;DHT22;479;53.514;9.994;2024-03-06T03:58:03;4.30;99.90
981;DHT22;479;53.514;9.994;2024-03-06T04:00:33;4.30;99.90
981;DHT22;479;53.514;9.994;2024-03-06T04:03:00;4.20;99.90
981;DHT22;479;53.514;9.994;2024-03-06T04:05:28;4.20;99.90
981;DHT22;479;53.514;9.994;2024-03-06T04:07:54;4.20;99.90
981;DHT22;479;53.514;9.994;2024-03-06T04:10:22;4.20;99.90
981;DHT22;479;53.514;9.994;2024-03-06T04:12:49;4.20;99.90
981;DHT22;479;53.514;9.994;2024-03-06T04:15:16;4.10;99.90
981;DHT22;479;53.514;9.994;2024-03-06T04:17:44;4.10;99.90
981;DHT22;479;53.514;9.994;2024-03-06T04:20:11;4.10;99.90
981;DHT22;479;53.514;9.994;2024-03-06T04:22:38;4.10;99.90
981;DHT22;479;53.514;9.994;2024-03-06T04:25:05;4.10;99.90
981;DHT22;479;53.514;9.994;2024-03-06T04:27:32;4.00;99.90
981;DHT22;479;53.514;9.994;2024-03-06T04:29:59;4.00;99.90
981;DHT22;479;53.514;9.994;2024-03-06T04:32:27;4.00;99.90
981;DHT22;479;53.514;9.994;2024-03-06T04:34:55;4.00;99.90
981;DHT22;479;53.514;9.994;2024-03-06T04:37:22;4.00;99.90
981;DHT22;479;53.514;9.994;2024-03-06T04:39:49;4.00;99.90
981;DHT22;479;53.514;9.994;2024-03-06T04:42:16;4.00;99.90
981;DHT22;479;53.514;9.994;2024-03-06T04:44:42;3.90;99.90
981;DHT22;479;53.514;9.994;2024-03-06T04:47:09;3.90;99.90
981;DHT22;479;53.514;9.994;2024-03-06T04:49:36;3.90;99.90
981;DHT22;479;53.514;9.994;2024-03-06T04:52:05;3.90;99.90
981;DHT22;479;53.514;9.994;2024-03-06T04:54:32;3.90;99.90
981;DHT22;479;53.514;9.994;2024-03-06T04:56:59;3.90;99.90
981;DHT22;479;53.514;9.994;2024-03-06T04:59:26;3.90;99.90
981;DHT22;479;53.514;9.994;2024-03-06T05:01:53;3.80;99.90
981;DHT22;479;53.514;9.994;2024-03-06T05:04:19;3.80;99.90
981;DHT22;479;53.514;9.994;2024-03-06T05:06:47;3.80;99.90
981;DHT22;479;53.514;9.994;2024-03-06T05:09:15;3.80;99.90
981;DHT22;479;53.514;9.994;2024-03-06T05:11:42;3.80;99.90
981;DHT22;479;53.514;9.994;2024-03-06T05:14:09;3.80;99.90
981;DHT22;479;53.514;9.994;2024-03-06T05:16:36;3.80;99.90
981;DHT22;479;53.514;9.994;2024-03-06T05:19:04;3.80;99.90
981;DHT22;479;53.514;9.994;2024-03-06T05:21:32;3.70;99.90
981;DHT22;479;53.514;9.994;2024-03-06T05:24:00;3.70;99.90
981;DHT22;479;53.514;9.994;2024-03-06T05:26:29;3.60;99.90
981;DHT22;479;53.514;9.994;2024-03-06T05:28:56;3.60;99.90
981;DHT22;479;53.514;9.994;2024-03-06T05:31:23;3.60;99.90
981;DHT22;479;53.514;9.994;2024-03-06T05:33:50;3.60;99.90
981;DHT22;479;53.514;9.994;2024-03-06T05:36:18;3.60;99.90
981;DHT22;479;53.514;9.994;2024-03-06T05:38:44;3.60;99.90
981;DHT22;479;53.514;9.994;2024-03-06T05:41:13;3.50;99.90
981;DHT22;479;53.514;9.994;2024-03-06T05:43:42;3.50;99.90
981;DHT22;479;53.514;9.994;2024-03-06T05:46:09;3.50;99.90
981;DHT22;479;53.514;9.994;2024-03-06T05:48:36;3.50;99.90
981;DHT22;479;53.514;9.994;2024-03-06T05:51:03;3.50;99.90
981;DHT22;479;53.514;9.994;2024-03-06T05:53:30;3.50;99.90
981;DHT22;479;53.514;9.994;2024-03-06T05:55:57;3.50;99.90
981;DHT22;479;53.514;9.994;2024-03-06T05:58:24;3.50;99.90
981;DHT22;479;53.514;9.994;2024-03-06T06:00:52;3.40;99.90
981;DHT22;479;53.514;9.994;2024-03-06T06:03:19;3.50;99.90
981;DHT22;479;53.514;9.994;2024-03-06T06:05:46;3.40;99.90
981;DHT22;479;53.514;9.994;2024-03-06T06:08:12;3.40;99.90
981;DHT22;479;53.514;9.994;2024-03-06T06:10:39;3.40;99.90
981;DHT22;479;53.514;9.994;2024-03-06T06:13:06;3.40;99.90
981;DHT22;479;53.514;9.994;2024-03-06T06:15:33;3.40;99.90
981;DHT22;479;53.514;9.994;2024-03-06T06:18:02;3.40;99.90
981;DHT22;479;53.514;9.994;2024-03-06T06:20:29;3.40;99.90
981;DHT22;479;53.514;9.994;2024-03-06T06:22:56;3.50;99.90
981;DHT22;479;53.514;9.994;2024-03-06T06:25:23;3.60;99.90
981;DHT22;479;53.514;9.994;2024-03-06T06:27:50;3.60;99.90
981;DHT22;479;53.514;9.994;2024-03-06T06:30:17;3.60;99.90
981;DHT22;479;53.514;9.994;2024-03-06T06:32:44;3.60;99.90
981;DHT22;479;53.514;9.994;2024-03-06T06:35:12;3.60;99.90
981;DHT22;479;53.514;9.994;2024-03-06T06:37:40;3.70;99.90
981;DHT22;479;53.514;9.994;2024-03-06T06:40:07;3.70;99.90
981;DHT22;479;53.514;9.994;2024-03-06T06:42:35;3.80;99.90
981;DHT22;479;53.514;9.994;2024-03-06T06:45:03;3.80;99.90
981;DHT22;479;53.514;9.994;2024-03-06T06:47:31;3.90;99.90
981;DHT22;479;53.514;9.994;2024-03-06T06:49:58;3.90;99.90
981;DHT22;479;53.514;9.994;2024-03-06T06:52:27;4.10;99.90
981;DHT22;479;53.514;9.994;2024-03-06T06:54:54;4.10;99.90
981;DHT22;479;53.514;9.994;2024-03-06T06:57:21;4.20;99.90
981;DHT22;479;53.514;9.994;2024-03-06T06:59:48;4.20;99.90
981;DHT22;479;53.514;9.994;2024-03-06T07:02:15;4.30;99.90
981;DHT22;479;53.514;9.994;2024-03-06T07:04:42;4.30;99.90
981;DHT22;479;53.514;9.994;2024-03-06T07:07:09;4.40;99.90
981;DHT22;479;53.514;9.994;2024-03-06T07:09:38;4.50;99.90
981;DHT22;479;53.514;9.994;2024-03-06T07:12:05;4.50;99.90
981;DHT22;479;53.514;9.994;2024-03-06T07:14:33;4.60;99.90
981;DHT22;479;53.514;9.994;2024-03-06T07:17:00;4.70;99.90
981;DHT22;479;53.514;9.994;2024-03-06T07:19:27;4.80;99.90
981;DHT22;479;53.514;9.994;2024-03-06T07:21:54;5.30;99.90
981;DHT22;479;53.514;9.994;2024-03-06T07:24:21;6.20;99.90
981;DHT22;479;53.514;9.994;2024-03-06T07:26:49;7.10;99.90
981;DHT22;479;53.514;9.994;2024-03-06T07:29:16;8.10;99.90
981;DHT22;479;53.514;9.994;2024-03-06T07:31:43;8.70;99.90
981;DHT22;479;53.514;9.994;2024-03-06T07:34:10;9.00;99.90
981;DHT22;479;53.514;9.994;2024-03-06T07:36:37;9.40;99.90
981;DHT22;479;53.514;9.994;2024-03-06T07:39:04;9.80;99.90
981;DHT22;479;53.514;9.994;2024-03-06T07:41:31;10.50;99.90
981;DHT22;479;53.514;9.994;2024-03-06T07:44:00;10.60;99.90
981;DHT22;479;53.514;9.994;2024-03-06T07:46:27;10.90;99.90
981;DHT22;479;53.514;9.994;2024-03-06T07:48:53;11.30;99.90
981;DHT22;479;53.514;9.994;2024-03-06T07:51:20;12.10;99.90
981;DHT22;479;53.514;9.994;2024-03-06T07:53:47;12.70;99.90
981;DHT22;479;53.514;9.994;2024-03-06T07:56:15;13.40;99.90
981;DHT22;479;53.514;9.994;2024-03-06T07:58:42;13.00;99.90
981;DHT22;479;53.514;9.994;2024-03-06T08:01:11;12.40;99.90
981;DHT22;479;53.514;9.994;2024-03-06T08:03:39;12.90;99.90
981;DHT22;479;53.514;9.994;2024-03-06T08:06:06;12.80;99.90
981;DHT22;479;53.514;9.994;2024-03-06T08:08:33;12.80;99.90
981;DHT22;479;53.514;9.994;2024-03-06T08:11:00;12.50;99.90
981;DHT22;479;53.514;9.994;2024-03-06T08:13:28;12.80;99.90
981;DHT22;479;53.514;9.994;2024-03-06T08:15:55;13.10;99.90
981;DHT22;479;53.514;9.994;2024-03-06T08:18:23;13.30;99.90
981;DHT22;479;53.514;9.994;2024-03-06T08:20:50;13.80;99.90
981;DHT22;479;53.514;9.994;2024-03-06T08:23:18;13.70;99.90
981;DHT22;479;53.514;9.994;2024-03-06T08:25:45;14.40;99.90
981;DHT22;479;53.514;9.994;2024-03-06T08:28:12;15.50;99.90
981;DHT22;479;53.514;9.994;2024-03-06T08:30:39;16.20;99.90
981;DHT22;479;53.514;9.994;2024-03-06T08:33:06;15.30;99.90
981;DHT22;479;53.514;9.994;2024-03-06T08:35:34;13.50;99.90
981;DHT22;479;53.514;9.994;2024-03-06T08:38:01;12.60;99.90
981;DHT22;479;53.514;9.994;2024-03-06T08:40:28;13.50;99.90
981;DHT22;479;53.514;9.994;2024-03-06T08:42:55;12.80;99.90
981;DHT22;479;53.514;9.994;2024-03-06T08:45:22;12.90;99.90
981;DHT22;479;53.514;9.994;2024-03-06T08:47:49;13.30;99.90
981;DHT22;479;53.514;9.994;2024-03-06T08:50:17;14.70;99.90
981;DHT22;479;53.514;9.994;2024-03-06T08:52:46;15.10;99.90
981;DHT22;479;53.514;9.994;2024-03-06T08:55:13;15.30;99.90
981;DHT22;479;53.514;9.994;2024-03-06T08:57:40;16.60;99.90
981;DHT22;479;53.514;9.994;2024-03-06T09:00:08;16.40;99.90
981;DHT22;479;53.514;9.994;2024-03-06T09:02:36;17.00;99.90
981;DHT22;479;53.514;9.994;2024-03-06T09:05:04;16.90;99.90
981;DHT22;479;53.514;9.994;2024-03-06T09:07:31;17.30;99.90
981;DHT22;479;53.514;9.994;2024-03-06T09:10:04;17.10;99.90
981;DHT22;479;53.514;9.994;2024-03-06T09:12:32;16.60;99.90
981;DHT22;479;53.514;9.994;2024-03-06T09:14:59;16.20;99.90
981;DHT22;479;53.514;9.994;2024-03-06T09:17:26;15.60;99.90
981;DHT22;479;53.514;9.994;2024-03-06T09:19:53;16.60;99.90
981;DHT22;479;53.514;9.994;2024-03-06T09:22:21;16.70;99.90
981;DHT22;479;53.514;9.994;2024-03-06T09:24:48;17.40;99.90
981;DHT22;479;53.514;9.994;2024-03-06T09:27:17;16.10;98.90
981;DHT22;479;53.514;9.994;2024-03-06T09:29:44;14.20;94.30
981;DHT22;479;53.514;9.994;2024-03-06T09:32:11;14.30;96.70
981;DHT22;479;53.514;9.994;2024-03-06T09:34:41;14.10;95.30
981;DHT22;479;53.514;9.994;2024-03-06T09:37:08;12.20;92.20
981;DHT22;479;53.514;9.994;2024-03-06T09:39:35;11.00;98.20
981;DHT22;479;53.514;9.994;2024-03-06T09:42:02;10.70;99.90
981;DHT22;479;53.514;9.994;2024-03-06T09:44:31;11.00;99.90
981;DHT22;479;53.514;9.994;2024-03-06T09:46:59;9.90;99.90
981;DHT22;479;53.514;9.994;2024-03-06T09:49:29;10.50;99.90
981;DHT22;479;53.514;9.994;2024-03-06T09:51:56;9.80;99.90
981;DHT22;479;53.514;9.994;2024-03-06T09:54:25;10.80;99.90
981;DHT22;479;53.514;9.994;2024-03-06T09:56:53;12.70;99.90
981;DHT22;479;53.514;9.994;2024-03-06T09:59:24;14.70;99.90
981;DHT22;479;53.514;9.994;2024-03-06T10:01:56;15.70;96.80
981;DHT22;479;53.514;9.994;2024-03-06T10:04:24;17.00;97.60
981;DHT22;479;53.514;9.994;2024-03-06T10:06:54;15.10;90.20
981;DHT22;479;53.514;9.994;2024-03-06T10:09:22;15.00;90.20
981;DHT22;479;53.514;9.994;2024-03-06T10:11:49;16.30;91.90
981;DHT22;479;53.514;9.994;2024-03-06T10:14:18;15.90;84.90
981;DHT22;479;53.514;9.994;2024-03-06T10:16:56;15.30;81.30
981;DHT22;479;53.514;9.994;2024-03-06T10:19:32;13.70;81.70
981;DHT22;479;53.514;9.994;2024-03-06T10:22:00;15.10;83.90
981;DHT22;479;53.514;9.994;2024-03-06T10:24:28;14.80;75.60
981;DHT22;479;53.514;9.994;2024-03-06T10:26:57;13.10;77.60
981;DHT22;479;53.514;9.994;2024-03-06T10:29:26;13.10;82.00
981;DHT22;479;53.514;9.994;2024-03-06T10:31:55;14.30;84.10
981;DHT22;479;53.514;9.994;2024-03-06T10:34:23;15.40;80.90
981;DHT22;479;53.514;9.994;2024-03-06T10:36:54;16.70;79.10
981;DHT22;479;53.514;9.994;2024-03-06T10:39:22;16.90;73.70
981;DHT22;479;53.514;9.994;2024-03-06T10:41:52;17.60;73.10
981;DHT22;479;53.514;9.994;2024-03-06T10:44:22;17.20;68.40
981;DHT22;479;53.514;9.994;2024-03-06T10:46:57;17.40;66.80
981;DHT22;479;53.514;9.994;2024-03-06T10:49:26;16.50;60.80
981;DHT22;479;53.514;9.994;2024-03-06T10:51:59;16.00;61.80
981;DHT22;479;53.514;9.994;2024-03-06T10:54:27;15.70;63.20
981;DHT22;479;53.514;9.994;2024-03-06T10:56:55;15.40;65.50
981;DHT22;479;53.514;9.994;2024-03-06T10:59:25;14.30;60.70
981;DHT22;479;53.514;9.994;2024-03-06T11:01:54;13.60;64.20
981;DHT22;479;53.514;9.994;2024-03-06T11:04:23;13.80;71.20
981;DHT22;479;53.514;9.994;2024-03-06T11:06:51;13.30;73.50
981;DHT22;479;53.514;9.994;2024-03-06T11:09:19;13.60;75.40
981;DHT22;479;53.514;9.994;2024-03-06T11:11:50;13.20;72.10
981;DHT22;479;53.514;9.994;2024-03-06T11:14:18;12.70;75.90
981;DHT22;479;53.514;9.994;2024-03-06T11:17:04;12.50;78.50
981;DHT22;479;53.514;9.994;2024-03-06T11:19:33;12.00;81.80
981;DHT22;479;53.514;9.994;2024-03-06T11:23:02;11.80;86.60
981;DHT22;479;53.514;9.994;2024-03-06T11:28:38;10.70;92.10
981;DHT22;479;53.514;9.994;2024-03-06T11:31:06;10.60;94.40
981;DHT22;479;53.514;9.994;2024-03-06T11:33:38;10.60;95.10
981;DHT22;479;53.514;9.994;2024-03-06T11:36:15;10.80;95.30
981;DHT22;479;53.514;9.994;2024-03-06T11:38:56;11.40;95.80
981;DHT22;479;53.514;9.994;2024-03-06T11:41:25;11.60;93.10
981;DHT22;479;53.514;9.994;2024-03-06T11:43:52;11.80;93.10
981;DHT22;479;53.514;9.994;2024-03-06T11:46:21;11.60;93.80
981;DHT22;479;53.514;9.994;2024-03-06T11:48:53;11.20;93.00
981;DHT22;479;53.514;9.994;2024-03-06T11:51:20;10.80;94.60
981;DHT22;479;53.514;9.994;2024-03-06T11:53:52;10.80;95.40
981;DHT22;479;53.514;9.994;2024-03-06T11:56:20;10.90;95.90
981;DHT22;479;53.514;9.994;2024-03-06T11:58:48;11.20;95.90
981;DHT22;479;53.514;9.994;2024-03-06T12:01:14;11.00;97.30
981;DHT22;479;53.514;9.994;2024-03-06T12:03:42;11.20;96.70
981;DHT22;479;53.514;9.994;2024-03-06T12:06:09;11.30;94.70
981;DHT22;479;53.514;9.994;2024-03-06T12:08:36;11.30;95.30
981;DHT22;479;53.514;9.994;2024-03-06T12:11:06;11.50;96.40
981;DHT22;479;53.514;9.994;2024-03-06T12:13:33;11.60;95.30
981;DHT22;479;53.514;9.994;2024-03-06T12:16:05;11.80;94.50
981;DHT22;479;53.514;9.994;2024-03-06T12:18:32;11.80;92.20
981;DHT22;479;53.514;9.994;2024-03-06T12:21:00;11.50;92.10
981;DHT22;479;53.514;9.994;2024-03-06T12:23:28;11.00;92.10
981;DHT22;479;53.514;9.994;2024-03-06T12:26:07;10.70;93.20
981;DHT22;479;53.514;9.994;2024-03-06T12:28:35;10.40;95.10
981;DHT22;479;53.514;9.994;2024-03-06T12:31:03;10.40;96.50
981;DHT22;479;53.514;9.994;2024-03-06T12:33:30;10.30;95.40
981;DHT22;479;53.514;9.994;2024-03-06T12:36:05;10.10;96.50
981;DHT22;479;53.514;9.994;2024-03-06T12:38:36;10.10;97.40
981;DHT22;479;53.514;9.994;2024-03-06T12:41:03;10.10;97.40
981;DHT22;479;53.514;9.994;2024-03-06T12:43:32;10.10;99.20
981;DHT22;479;53.514;9.994;2024-03-06T12:46:00;10.50;99.60
981;DHT22;479;53.514;9.994;2024-03-06T12:48:34;10.30;97.00
981;DHT22;479;53.514;9.994;2024-03-06T12:51:01;10.20;98.10
981;DHT22;479;53.514;9.994;2024-03-06T12:53:30;10.10;97.70
981;DHT22;479;53.514;9.994;2024-03-06T12:55:57;10.30;99.00
981;DHT22;479;53.514;9.994;2024-03-06T12:58:24;10.40;98.30
981;DHT22;479;53.514;9.994;2024-03-06T13:00:52;10.50;98.90
981;DHT22;479;53.514;9.994;2024-03-06T13:03:20;10.60;98.30
981;DHT22;479;53.514;9.994;2024-03-06T13:05:47;10.50;97.10
981;DHT22;479;53.514;9.994;2024-03-06T13:08:14;10.40;97.70
981;DHT22;479;53.514;9.994;2024-03-06T13:10:41;10.40;98.10
981;DHT22;479;53.514;9.994;2024-03-06T13:13:08;10.40;98.10
981;DHT22;479;53.514;9.994;2024-03-06T13:15:35;10.40;98.70
981;DHT22;479;53.514;9.994;2024-03-06T13:18:05;10.50;98.60
981;DHT22;479;53.514;9.994;2024-03-06T13:20:32;10.40;98.60
981;DHT22;479;53.514;9.994;2024-03-06T13:22:59;10.30;98.40
981;DHT22;479;53.514;9.994;2024-03-06T13:25:27;10.30;98.40
981;DHT22;479;53.514;9.994;2024-03-06T13:27:54;10.20;99.30
981;DHT22;479;53.514;9.994;2024-03-06T13:30:21;10.20;99.50
981;DHT22;479;53.514;9.994;2024-03-06T13:32:48;10.00;98.90
981;DHT22;479;53.514;9.994;2024-03-06T13:35:17;10.10;99.90
981;DHT22;479;53.514;9.994;2024-03-06T13:37:43;10.10;99.90
981;DHT22;479;53.514;9.994;2024-03-06T13:40:11;10.10;99.90
981;DHT22;479;53.514;9.994;2024-03-06T13:42:39;10.00;99.70
981;DHT22;479;53.514;9.994;2024-03-06T13:45:06;10.00;99.10
981;DHT22;479;53.514;9.994;2024-03-06T13:47:37;9.80;99.90
981;DHT22;479;53.514;9.994;2024-03-06T13:50:06;9.80;99.90
981;DHT22;479;53.514;9.994;2024-03-06T13:52:35;9.90;99.90
981;DHT22;479;53.514;9.994;2024-03-06T13:55:02;10.00;99.90
981;DHT22;479;53.514;9.994;2024-03-06T13:57:30;10.10;99.90
981;DHT22;479;53.514;9.994;2024-03-06T13:59:59;10.10;99.40
981;DHT22;479;53.514;9.994;2024-03-06T14:02:26;10.10;99.90
981;DHT22;479;53.514;9.994;2024-03-06T14:04:53;10.10;98.90
981;DHT22;479;53.514;9.994;2024-03-06T14:07:20;10.10;98.30
981;DHT22;479;53.514;9.994;2024-03-06T14:09:48;10.10;98.80
981;DHT22;479;53.514;9.994;2024-03-06T14:12:15;10.10;98.20
981;DHT22;479;53.514;9.994;2024-03-06T14:14:42;10.00;98.50
981;DHT22;479;53.514;9.994;2024-03-06T14:17:10;10.00;97.80
981;DHT22;479;53.514;9.994;2024-03-06T14:19:38;10.00;98.70
981;DHT22;479;53.514;9.994;2024-03-06T14:22:05;10.00;98.00
981;DHT22;479;53.514;9.994;2024-03-06T14:24:32;9.90;99.20
981;DHT22;479;53.514;9.994;2024-03-06T14:27:00;9.80;99.90
981;DHT22;479;53.514;9.994;2024-03-06T14:29:28;9.70;99.20
981;DHT22;479;53.514;9.994;2024-03-06T14:31:55;9.60;99.60
981;DHT22;479;53.514;9.994;2024-03-06T14:34:22;9.70;99.90
981;DHT22;479;53.514;9.994;2024-03-06T14:36:50;9.80;99.90
981;DHT22;479;53.514;9.994;2024-03-06T14:39:17;9.80;99.90
981;DHT22;479;53.514;9.994;2024-03-06T14:41:44;9.60;99.90
981;DHT22;479;53.514;9.994;2024-03-06T14:44:14;9.40;99.60
981;DHT22;479;53.514;9.994;2024-03-06T14:46:41;9.20;99.90
981;DHT22;479;53.514;9.994;2024-03-06T14:49:08;9.30;99.90
981;DHT22;479;53.514;9.994;2024-03-06T14:51:35;9.30;99.90
981;DHT22;479;53.514;9.994;2024-03-06T14:54:02;9.30;99.90
981;DHT22;479;53.514;9.994;2024-03-06T14:56:29;9.30;99.90
981;DHT22;479;53.514;9.994;2024-03-06T14:58:56;9.40;99.90
981;DHT22;479;53.514;9.994;2024-03-06T15:01:25;9.30;99.90
981;DHT22;479;53.514;9.994;2024-03-06T15:03:52;9.30;99.90
981;DHT22;479;53.514;9.994;2024-03-06T15:06:20;9.30;99.90
981;DHT22;479;53.514;9.994;2024-03-06T15:08:46;9.30;99.90
981;DHT22;479;53.514;9.994;2024-03-06T15:11:13;9.10;99.90
981;DHT22;479;53.514;9.994;2024-03-06T15:13:40;8.80;99.90
981;DHT22;479;53.514;9.994;2024-03-06T15:16:07;8.90;99.90
981;DHT22;479;53.514;9.994;2024-03-06T15:18:36;8.70;99.90
981;DHT22;479;53.514;9.994;2024-03-06T15:21:03;8.80;99.90
981;DHT22;479;53.514;9.994;2024-03-06T15:23:30;8.90;99.90
981;DHT22;479;53.514;9.994;2024-03-06T15:25:58;8.80;99.90
981;DHT22;479;53.514;9.994;2024-03-06T15:28:25;8.80;99.90
981;DHT22;479;53.514;9.994;2024-03-06T15:30:52;8.70;99.90
981;DHT22;479;53.514;9.994;2024-03-06T15:33:19;8.80;99.90
981;DHT22;479;53.514;9.994;2024-03-06T15:35:47;8.70;99.90
981;DHT22;479;53.514;9.994;2024-03-06T15:38:14;8.70;99.90
981;DHT22;479;53.514;9.994;2024-03-06T15:40:41;8.70;99.90
981;DHT22;479;53.514;9.994;2024-03-06T15:43:08;8.70;99.90
981;DHT22;479;53.514;9.994;2024-03-06T15:45:35;8.80;99.90
981;DHT22;479;53.514;9.994;2024-03-06T15:48:02;8.80;99.90
981;DHT22;479;53.514;9.994;2024-03-06T15:50:28;8.90;99.90
981;DHT22;479;53.514;9.994;2024-03-06T15:52:57;8.80;99.90
981;DHT22;479;53.514;9.994;2024-03-06T15:55:24;8.70;99.90
981;DHT22;479;53.514;9.994;2024-03-06T15:57:51;8.40;99.90
981;DHT22;479;53.514;9.994;2024-03-06T16:00:18;8.40;99.90
981;DHT22;479;53.514;9.994;2024-03-06T16:02:45;8.30;99.90
981;DHT22;479;53.514;9.994;2024-03-06T16:05:13;8.30;99.90
981;DHT22;479;53.514;9.994;2024-03-06T16:07:39;8.30;99.90
981;DHT22;479;53.514;9.994;2024-03-06T16:10:08;8.20;99.90
981;DHT22;479;53.514;9.994;2024-03-06T16:12:36;8.10;99.90
981;DHT22;479;53.514;9.994;2024-03-06T16:15:03;8.00;99.90
981;DHT22;479;53.514;9.994;2024-03-06T16:17:30;7.90;99.90
981;DHT22;479;53.514;9.994;2024-03-06T16:19:59;7.90;99.90
981;DHT22;479;53.514;9.994;2024-03-06T16:22:30;8.10;99.90
981;DHT22;479;53.514;9.994;2024-03-06T16:24:57;8.10;99.90
981;DHT22;479;53.514;9.994;2024-03-06T16:27:25;8.00;99.90
981;DHT22;479;53.514;9.994;2024-03-06T16:29:54;8.00;99.90
981;DHT22;479;53.514;9.994;2024-03-06T16:32:21;7.90;99.90
981;DHT22;479;53.514;9.994;2024-03-06T16:34:48;7.80;99.90
981;DHT22;479;53.514;9.994;2024-03-06T16:37:15;7.70;99.90
981;DHT22;479;53.514;9.994;2024-03-06T16:39:42;7.60;99.90
981;DHT22;479;53.514;9.994;2024-03-06T16:42:10;7.50;99.90
981;DHT22;479;53.514;9.994;2024-03-06T16:44:41;7.50;99.90
981;DHT22;479;53.514;9.994;2024-03-06T16:47:08;7.40;99.90
981;DHT22;479;53.514;9.994;2024-03-06T16:49:35;7.30;99.90
981;DHT22;479;53.514;9.994;2024-03-06T16:52:02;7.20;99.90